Vejrstation Sortsø Strand
Vejrstation Sortsø Strands historiske vejrdata
 
Daily Summary for April 13, 2024 Units:  Metric    English   Both
Daily Weekly Monthly Yearly Custom
  Current: High: Low: Average:
Temperature: 14.8 °C 16.6 °C 7.4 °C 12 °C
Dew Point: 11.0 °C 12.1 °C 4.7 °C 8.6 °C
Humidity: 78% 83% 73% 80%
Wind Speed: 13km/h 35km/h 8km/h 20.5km/h
Wind Gust: 6km/h 21km/h - -
WindWest - - West
Pressure: 1015.8 hPa 1021.9 hPa 1015.8 hPa -
Precipitation: 0.00 mm      
Historical Graphs
 
 
Tabular Data for April 13, 2024
Time Temperature Dew Point Pressure Wind Wind Speed Wind Gust Humidity Rainfall Rate (Hourly) solar
00:04 9.8 °C 6.8 °C 1021.9 hPa WNW 21 km/h 11 km/h 82% 0.00 mm 0.00 W/m2
00:09 9.8 °C 6.8 °C 1021.8 hPa WNW 23 km/h 14 km/h 82% 0.00 mm 0.00 W/m2
00:14 9.7 °C 6.8 °C 1021.7 hPa WNW 19 km/h 9 km/h 82% 0.00 mm 0.00 W/m2
00:19 9.7 °C 6.7 °C 1021.8 hPa West 19 km/h 10 km/h 82% 0.00 mm 0.00 W/m2
00:24 9.6 °C 6.7 °C 1021.8 hPa WNW 23 km/h 16 km/h 82% 0.00 mm 0.00 W/m2
00:29 9.6 °C 6.6 °C 1021.8 hPa WNW 21 km/h 13 km/h 82% 0.00 mm 0.00 W/m2
00:34 9.6 °C 6.6 °C 1021.8 hPa WNW 19 km/h 12 km/h 82% 0.00 mm 0.00 W/m2
00:39 9.6 °C 6.6 °C 1021.8 hPa WNW 19 km/h 9 km/h 82% 0.00 mm 0.00 W/m2
00:44 9.5 °C 6.6 °C 1021.7 hPa WNW 21 km/h 8 km/h 82% 0.00 mm 0.00 W/m2
00:49 9.5 °C 6.6 °C 1021.7 hPa WNW 20 km/h 10 km/h 82% 0.00 mm 0.00 W/m2
00:54 9.4 °C 6.5 °C 1021.5 hPa WNW 11 km/h 6 km/h 82% 0.00 mm 0.00 W/m2
00:59 9.4 °C 6.5 °C 1021.6 hPa WNW 19 km/h 12 km/h 82% 0.00 mm 0.00 W/m2
01:04 9.4 °C 6.4 °C 1021.7 hPa WNW 19 km/h 10 km/h 82% 0.00 mm 0.00 W/m2
01:09 9.3 °C 6.4 °C 1021.7 hPa WNW 21 km/h 11 km/h 82% 0.00 mm 0.00 W/m2
01:14 9.3 °C 6.4 °C 1021.8 hPa WNW 19 km/h 12 km/h 82% 0.00 mm 0.00 W/m2
01:19 9.3 °C 6.4 °C 1021.7 hPa WNW 11 km/h 7 km/h 82% 0.00 mm 0.00 W/m2
01:24 9.3 °C 6.4 °C 1021.7 hPa WNW 19 km/h 9 km/h 82% 0.00 mm 0.00 W/m2
01:29 9.3 °C 6.4 °C 1021.6 hPa WNW 19 km/h 12 km/h 82% 0.00 mm 0.00 W/m2
01:34 9.3 °C 6.4 °C 1021.6 hPa WNW 11 km/h 8 km/h 82% 0.00 mm 0.00 W/m2
01:39 9.3 °C 6.4 °C 1021.6 hPa WNW 17 km/h 8 km/h 82% 0.00 mm 0.00 W/m2
01:44 9.3 °C 6.4 °C 1021.7 hPa WNW 11 km/h 6 km/h 82% 0.00 mm 0.00 W/m2
01:49 9.4 °C 6.4 °C 1021.7 hPa West 21 km/h 14 km/h 82% 0.00 mm 0.00 W/m2
01:54 9.4 °C 6.4 °C 1021.7 hPa West 16 km/h 8 km/h 82% 0.00 mm 0.00 W/m2
01:59 9.4 °C 6.4 °C 1021.7 hPa West 24 km/h 14 km/h 82% 0.00 mm 0.00 W/m2
02:04 9.3 °C 6.4 °C 1021.6 hPa West 20 km/h 11 km/h 82% 0.00 mm 0.00 W/m2
02:09 9.3 °C 6.4 °C 1021.4 hPa West 19 km/h 9 km/h 82% 0.00 mm 0.00 W/m2
02:14 9.3 °C 6.4 °C 1021.4 hPa WNW 19 km/h 13 km/h 82% 0.00 mm 0.00 W/m2
02:19 9.3 °C 6.4 °C 1021.4 hPa West 23 km/h 13 km/h 82% 0.00 mm 0.00 W/m2
02:24 9.3 °C 6.4 °C 1021.3 hPa West 23 km/h 12 km/h 82% 0.00 mm 0.00 W/m2
02:29 9.2 °C 6.3 °C 1021.3 hPa West 17 km/h 7 km/h 82% 0.00 mm 0.00 W/m2
02:34 9.2 °C 6.3 °C 1021.3 hPa WNW 21 km/h 10 km/h 82% 0.00 mm 0.00 W/m2
02:39 9.1 °C 6.2 °C 1021.3 hPa WNW 17 km/h 7 km/h 82% 0.00 mm 0.00 W/m2
02:44 9.1 °C 6.2 °C 1021.2 hPa West 21 km/h 14 km/h 82% 0.00 mm 0.00 W/m2
02:49 8.9 °C 6.1 °C 1021.1 hPa West 20 km/h 15 km/h 82% 0.00 mm 0.00 W/m2
02:54 8.9 °C 6.0 °C 1021.0 hPa West 19 km/h 12 km/h 82% 0.00 mm 0.00 W/m2
02:59 8.8 °C 5.9 °C 1021.1 hPa West 19 km/h 10 km/h 82% 0.00 mm 0.00 W/m2
03:04 8.8 °C 5.9 °C 1021.2 hPa West 21 km/h 11 km/h 82% 0.00 mm 0.00 W/m2
03:09 8.7 °C 5.8 °C 1021.2 hPa West 19 km/h 12 km/h 82% 0.00 mm 0.00 W/m2
03:14 8.7 °C 5.8 °C 1021.1 hPa West 19 km/h 10 km/h 82% 0.00 mm 0.00 W/m2
03:19 8.6 °C 5.7 °C 1021.0 hPa WSW 16 km/h 8 km/h 82% 0.00 mm 0.00 W/m2
03:24 8.6 °C 5.7 °C 1020.9 hPa WSW 23 km/h 11 km/h 82% 0.00 mm 0.00 W/m2
03:29 8.5 °C 5.6 °C 1020.9 hPa WSW 15 km/h 6 km/h 82% 0.00 mm 0.00 W/m2
03:34 8.4 °C 5.6 °C 1021.0 hPa WSW 19 km/h 8 km/h 82% 0.00 mm 0.00 W/m2
03:39 8.4 °C 5.6 °C 1021.0 hPa WSW 19 km/h 8 km/h 82% 0.00 mm 0.00 W/m2
03:44 8.4 °C 5.5 °C 1020.8 hPa WSW 11 km/h 7 km/h 82% 0.00 mm 0.00 W/m2
03:49 8.3 °C 5.4 °C 1020.7 hPa WSW 11 km/h 8 km/h 82% 0.00 mm 0.00 W/m2
03:54 8.2 °C 5.3 °C 1020.8 hPa WSW 10 km/h 6 km/h 82% 0.00 mm 0.00 W/m2
03:59 8.1 °C 5.2 °C 1020.8 hPa WSW 10 km/h 6 km/h 82% 0.00 mm 0.00 W/m2
04:04 8.1 °C 5.2 °C 1020.9 hPa WSW 16 km/h 8 km/h 82% 0.00 mm 0.00 W/m2
04:09 8.0 °C 5.1 °C 1020.9 hPa WSW 17 km/h 9 km/h 82% 0.00 mm 0.00 W/m2
04:14 7.9 °C 5.0 °C 1020.9 hPa WSW 10 km/h 6 km/h 82% 0.00 mm 0.00 W/m2
04:19 7.8 °C 4.9 °C 1020.8 hPa WSW 13 km/h 8 km/h 82% 0.00 mm 0.00 W/m2
04:24 7.8 °C 4.9 °C 1020.9 hPa WSW 17 km/h 9 km/h 82% 0.00 mm 0.00 W/m2
04:29 7.8 °C 4.9 °C 1020.8 hPa WSW 17 km/h 8 km/h 82% 0.00 mm 0.00 W/m2
04:34 7.7 °C 4.8 °C 1020.8 hPa WSW 11 km/h 6 km/h 82% 0.00 mm 0.00 W/m2
04:39 7.7 °C 4.8 °C 1020.7 hPa WSW 10 km/h 6 km/h 82% 0.00 mm 0.00 W/m2
04:44 7.7 °C 4.8 °C 1020.6 hPa WSW 10 km/h 7 km/h 82% 0.00 mm 0.00 W/m2
04:49 7.6 °C 4.7 °C 1020.5 hPa WSW 11 km/h 7 km/h 82% 0.00 mm 0.00 W/m2
04:54 7.7 °C 4.8 °C 1020.5 hPa WSW 16 km/h 9 km/h 82% 0.00 mm 0.00 W/m2
04:59 7.7 °C 4.8 °C 1020.6 hPa WSW 17 km/h 8 km/h 82% 0.00 mm 0.00 W/m2
05:04 7.7 °C 4.8 °C 1020.6 hPa WSW 15 km/h 9 km/h 82% 0.00 mm 0.00 W/m2
05:09 7.6 °C 4.7 °C 1020.6 hPa WSW 17 km/h 8 km/h 82% 0.00 mm 0.00 W/m2
05:14 7.6 °C 4.8 °C 1020.5 hPa WSW 17 km/h 7 km/h 83% 0.00 mm 0.00 W/m2
05:19 7.5 °C 4.8 °C 1020.6 hPa WSW 11 km/h 6 km/h 83% 0.00 mm 0.00 W/m2
05:24 7.4 °C 4.7 °C 1020.7 hPa WSW 19 km/h 10 km/h 83% 0.00 mm 0.00 W/m2
05:29 7.4 °C 4.7 °C 1020.8 hPa WSW 11 km/h 6 km/h 83% 0.00 mm 0.00 W/m2
05:34 7.4 °C 4.7 °C 1020.7 hPa WSW 17 km/h 8 km/h 83% 0.00 mm 0.00 W/m2
05:39 7.4 °C 4.7 °C 1020.7 hPa WSW 16 km/h 10 km/h 83% 0.00 mm 0.00 W/m2
05:44 7.4 °C 4.7 °C 1020.7 hPa WSW 17 km/h 10 km/h 83% 0.00 mm 0.00 W/m2
05:49 7.4 °C 4.7 °C 1020.7 hPa WSW 13 km/h 7 km/h 83% 0.00 mm 0.00 W/m2
05:54 7.4 °C 4.7 °C 1020.7 hPa WSW 10 km/h 7 km/h 83% 0.00 mm 0.00 W/m2
05:59 7.4 °C 4.7 °C 1020.7 hPa WSW 19 km/h 9 km/h 83% 0.00 mm 0.00 W/m2
06:04 7.5 °C 4.8 °C 1020.7 hPa WSW 11 km/h 7 km/h 83% 0.00 mm 0.00 W/m2
06:09 7.5 °C 4.8 °C 1020.5 hPa WSW 10 km/h 5 km/h 83% 0.00 mm 0.00 W/m2
06:14 7.4 °C 4.7 °C 1020.4 hPa WSW 13 km/h 8 km/h 83% 0.00 mm 0.00 W/m2
06:19 7.4 °C 4.7 °C 1020.3 hPa WSW 15 km/h 8 km/h 83% 0.00 mm 0.00 W/m2
06:24 7.4 °C 4.7 °C 1020.3 hPa WSW 8 km/h 5 km/h 83% 0.00 mm 0.00 W/m2
06:29 7.4 °C 4.7 °C 1020.2 hPa WSW 10 km/h 6 km/h 83% 0.00 mm 0.00 W/m2
06:34 7.5 °C 4.8 °C 1020.2 hPa WSW 15 km/h 6 km/h 83% 0.00 mm 0.00 W/m2
06:39 7.6 °C 4.8 °C 1020.2 hPa WSW 10 km/h 5 km/h 83% 0.00 mm 0.00 W/m2
06:44 7.6 °C 4.8 °C 1020.2 hPa WSW 8 km/h 6 km/h 83% 0.00 mm 0.00 W/m2
06:49 7.6 °C 4.8 °C 1020.2 hPa WSW 10 km/h 6 km/h 83% 0.00 mm 0.00 W/m2
06:54 7.6 °C 4.9 °C 1020.2 hPa WSW 13 km/h 7 km/h 83% 0.00 mm 0.00 W/m2
06:59 7.7 °C 5.0 °C 1020.1 hPa WSW 15 km/h 8 km/h 83% 0.00 mm 0.00 W/m2
07:04 7.8 °C 5.1 °C 1020.1 hPa WSW 11 km/h 8 km/h 83% 0.00 mm 0.00 W/m2
07:09 7.9 °C 5.2 °C 1020.1 hPa WSW 13 km/h 6 km/h 83% 0.00 mm 0.00 W/m2
07:14 8.0 °C 5.3 °C 1020.1 hPa WSW 19 km/h 8 km/h 83% 0.00 mm 0.00 W/m2
07:19 8.1 °C 5.4 °C 1020.1 hPa WSW 16 km/h 8 km/h 83% 0.00 mm 0.00 W/m2
07:24 8.3 °C 5.6 °C 1020.1 hPa WSW 17 km/h 9 km/h 83% 0.00 mm 0.00 W/m2
07:29 8.3 °C 5.6 °C 1020.1 hPa WSW 21 km/h 14 km/h 83% 0.00 mm 0.00 W/m2
07:34 8.4 °C 5.7 °C 1020.0 hPa WSW 19 km/h 11 km/h 83% 0.00 mm 0.00 W/m2
07:39 8.5 °C 5.8 °C 1020.1 hPa WSW 17 km/h 9 km/h 83% 0.00 mm 0.00 W/m2
07:44 8.6 °C 5.8 °C 1020.1 hPa WSW 19 km/h 10 km/h 83% 0.00 mm 0.00 W/m2
07:49 8.7 °C 5.9 °C 1020.1 hPa WSW 21 km/h 13 km/h 83% 0.00 mm 0.00 W/m2
07:54 8.8 °C 6.1 °C 1020.1 hPa WSW 19 km/h 11 km/h 83% 0.00 mm 0.00 W/m2
07:59 9.0 °C 6.3 °C 1020.1 hPa WSW 17 km/h 10 km/h 83% 0.00 mm 0.00 W/m2
08:04 9.2 °C 6.5 °C 1020.0 hPa WSW 16 km/h 9 km/h 83% 0.00 mm 0.00 W/m2
08:09 9.3 °C 6.6 °C 1020.0 hPa WSW 19 km/h 15 km/h 83% 0.00 mm 0.00 W/m2
08:14 9.4 °C 6.7 °C 1020.1 hPa WSW 19 km/h 11 km/h 83% 0.00 mm 0.00 W/m2
08:19 9.4 °C 6.7 °C 1020.0 hPa WSW 23 km/h 14 km/h 83% 0.00 mm 0.00 W/m2
08:24 9.4 °C 6.7 °C 1020.0 hPa WSW 21 km/h 10 km/h 83% 0.00 mm 0.00 W/m2
08:29 9.6 °C 6.8 °C 1020.1 hPa WSW 15 km/h 9 km/h 83% 0.00 mm 0.00 W/m2
08:34 9.7 °C 6.9 °C 1020.1 hPa WSW 23 km/h 14 km/h 83% 0.00 mm 0.00 W/m2
08:39 9.8 °C 6.9 °C 1020.0 hPa West 22 km/h 14 km/h 83% 0.00 mm 0.00 W/m2
08:44 10.0 °C 7.2 °C 1020.1 hPa West 19 km/h 11 km/h 83% 0.00 mm 0.00 W/m2
08:49 10.1 °C 7.2 °C 1020.0 hPa West 23 km/h 15 km/h 82% 0.00 mm 0.00 W/m2
08:54 10.3 °C 7.3 °C 1020.0 hPa WSW 19 km/h 9 km/h 82% 0.00 mm 0.00 W/m2
08:59 10.3 °C 7.4 °C 1019.7 hPa WSW 19 km/h 15 km/h 82% 0.00 mm 0.00 W/m2
09:04 10.4 °C 7.4 °C 1019.6 hPa West 19 km/h 14 km/h 82% 0.00 mm 0.00 W/m2
09:09 10.4 °C 7.5 °C 1019.7 hPa WSW 24 km/h 17 km/h 82% 0.00 mm 0.00 W/m2
09:14 10.4 °C 7.5 °C 1019.7 hPa WSW 20 km/h 12 km/h 82% 0.00 mm 0.00 W/m2
09:19 10.7 °C 7.7 °C 1019.7 hPa WSW 23 km/h 13 km/h 82% 0.00 mm 0.00 W/m2
09:24 10.7 °C 7.6 °C 1019.7 hPa WSW 23 km/h 15 km/h 81% 0.00 mm 0.00 W/m2
09:29 10.8 °C 7.7 °C 1019.5 hPa WSW 24 km/h 16 km/h 81% 0.00 mm 0.00 W/m2
09:34 11.1 °C 7.9 °C 1019.5 hPa West 24 km/h 11 km/h 81% 0.00 mm 0.00 W/m2
09:39 11.3 °C 8.1 °C 1019.5 hPa WSW 24 km/h 15 km/h 81% 0.00 mm 0.00 W/m2
09:44 11.5 °C 8.3 °C 1019.4 hPa WSW 23 km/h 15 km/h 81% 0.00 mm 0.00 W/m2
09:49 11.8 °C 8.6 °C 1019.4 hPa WSW 21 km/h 15 km/h 81% 0.00 mm 0.00 W/m2
09:54 12.1 °C 8.9 °C 1019.3 hPa West 24 km/h 15 km/h 81% 0.00 mm 0.00 W/m2
09:59 12.3 °C 9.2 °C 1019.4 hPa WSW 26 km/h 18 km/h 81% 0.00 mm 0.00 W/m2
10:04 12.6 °C 9.4 °C 1019.4 hPa West 26 km/h 13 km/h 81% 0.00 mm 0.00 W/m2
10:09 12.9 °C 9.7 °C 1019.4 hPa WSW 26 km/h 14 km/h 81% 0.00 mm 0.00 W/m2
10:14 13.2 °C 10.0 °C 1019.4 hPa West 19 km/h 13 km/h 81% 0.00 mm 0.00 W/m2
10:19 13.4 °C 10.2 °C 1019.3 hPa West 23 km/h 15 km/h 81% 0.00 mm 0.00 W/m2
10:24 13.8 °C 10.6 °C 1019.4 hPa WNW 26 km/h 13 km/h 81% 0.00 mm 0.00 W/m2
10:29 14.1 °C 10.8 °C 1019.4 hPa West 26 km/h 13 km/h 81% 0.00 mm 0.00 W/m2
10:34 14.3 °C 11.1 °C 1019.3 hPa West 26 km/h 13 km/h 81% 0.00 mm 0.00 W/m2
10:39 14.4 °C 11.1 °C 1019.3 hPa WSW 30 km/h 14 km/h 81% 0.00 mm 0.00 W/m2
10:44 14.6 °C 11.2 °C 1019.3 hPa West 23 km/h 15 km/h 80% 0.00 mm 0.00 W/m2
10:49 14.6 °C 11.2 °C 1019.2 hPa WSW 23 km/h 15 km/h 80% 0.00 mm 0.00 W/m2
10:54 14.7 °C 11.3 °C 1019.3 hPa WSW 19 km/h 13 km/h 80% 0.00 mm 0.00 W/m2
10:59 15.1 °C 11.6 °C 1019.4 hPa WSW 19 km/h 9 km/h 80% 0.00 mm 0.00 W/m2
11:04 15.1 °C 11.7 °C 1019.2 hPa WSW 26 km/h 16 km/h 80% 0.00 mm 0.00 W/m2
11:09 15.1 °C 11.6 °C 1019.3 hPa WSW 19 km/h 14 km/h 80% 0.00 mm 0.00 W/m2
11:14 15.1 °C 11.7 °C 1019.2 hPa West 21 km/h 14 km/h 80% 0.00 mm 0.00 W/m2
11:19 15.1 °C 11.7 °C 1019.3 hPa WSW 26 km/h 18 km/h 80% 0.00 mm 0.00 W/m2
11:24 15.1 °C 11.6 °C 1019.3 hPa West 24 km/h 15 km/h 80% 0.00 mm 0.00 W/m2
11:29 14.8 °C 11.4 °C 1019.3 hPa WSW 21 km/h 16 km/h 80% 0.00 mm 0.00 W/m2
11:34 14.8 °C 11.4 °C 1019.4 hPa West 21 km/h 13 km/h 80% 0.00 mm 0.00 W/m2
11:39 14.8 °C 11.4 °C 1019.5 hPa West 21 km/h 14 km/h 80% 0.00 mm 0.00 W/m2
11:44 14.7 °C 11.3 °C 1019.5 hPa WSW 24 km/h 17 km/h 80% 0.00 mm 0.00 W/m2
11:49 14.6 °C 11.4 °C 1019.5 hPa WNW 28 km/h 17 km/h 81% 0.00 mm 0.00 W/m2
11:54 14.5 °C 11.3 °C 1019.5 hPa WNW 19 km/h 10 km/h 81% 0.00 mm 0.00 W/m2
11:59 14.4 °C 11.2 °C 1019.5 hPa NW 19 km/h 14 km/h 81% 0.00 mm 0.00 W/m2
12:04 14.4 °C 11.2 °C 1019.6 hPa WNW 28 km/h 19 km/h 81% 0.00 mm 0.00 W/m2
12:09 14.3 °C 11.1 °C 1019.6 hPa WNW 30 km/h 16 km/h 81% 0.00 mm 0.00 W/m2
12:14 14.2 °C 11.0 °C 1019.6 hPa WNW 23 km/h 15 km/h 81% 0.00 mm 0.00 W/m2
12:19 14.3 °C 11.1 °C 1019.7 hPa NW 23 km/h 14 km/h 81% 0.00 mm 0.00 W/m2
12:24 14.3 °C 11.1 °C 1019.7 hPa WNW 26 km/h 17 km/h 81% 0.00 mm 0.00 W/m2
12:29 14.4 °C 11.2 °C 1019.5 hPa West 32 km/h 18 km/h 81% 0.00 mm 0.00 W/m2
12:34 14.7 °C 11.4 °C 1019.4 hPa WNW 24 km/h 15 km/h 81% 0.00 mm 0.00 W/m2
12:39 14.8 °C 11.6 °C 1019.3 hPa West 35 km/h 21 km/h 81% 0.00 mm 0.00 W/m2
12:44 14.9 °C 11.4 °C 1019.3 hPa West 32 km/h 20 km/h 80% 0.00 mm 0.00 W/m2
12:49 15.2 °C 11.7 °C 1019.3 hPa West 29 km/h 18 km/h 80% 0.00 mm 0.00 W/m2
12:54 15.4 °C 11.9 °C 1019.3 hPa West 19 km/h 13 km/h 80% 0.00 mm 0.00 W/m2
12:59 15.6 °C 12.1 °C 1019.3 hPa WNW 26 km/h 15 km/h 80% 0.00 mm 0.00 W/m2
13:04 15.7 °C 12.1 °C 1019.2 hPa WNW 19 km/h 13 km/h 79% 0.00 mm 0.00 W/m2
13:09 15.7 °C 12.1 °C 1019.1 hPa WNW 21 km/h 15 km/h 79% 0.00 mm 0.00 W/m2
13:14 15.7 °C 12.1 °C 1019.1 hPa WSW 24 km/h 14 km/h 79% 0.00 mm 0.00 W/m2
13:19 15.7 °C 11.9 °C 1019.1 hPa West 28 km/h 15 km/h 78% 0.00 mm 0.00 W/m2
13:24 15.7 °C 11.7 °C 1019.2 hPa West 32 km/h 21 km/h 77% 0.00 mm 0.00 W/m2
13:29 15.7 °C 11.7 °C 1019.2 hPa West 28 km/h 16 km/h 77% 0.00 mm 0.00 W/m2
13:34 15.7 °C 11.7 °C 1019.2 hPa West 24 km/h 16 km/h 77% 0.00 mm 0.00 W/m2
13:39 15.9 °C 11.8 °C 1019.2 hPa West 23 km/h 14 km/h 77% 0.00 mm 0.00 W/m2
13:44 16.0 °C 11.9 °C 1019.1 hPa WNW 26 km/h 18 km/h 77% 0.00 mm 0.00 W/m2
13:49 16.1 °C 11.9 °C 1019.0 hPa WNW 26 km/h 15 km/h 77% 0.00 mm 0.00 W/m2
13:54 16.2 °C 12.0 °C 1019.0 hPa WNW 32 km/h 21 km/h 76% 0.00 mm 0.00 W/m2
13:59 16.3 °C 12.1 °C 1019.0 hPa West 32 km/h 21 km/h 76% 0.00 mm 0.00 W/m2
14:04 16.3 °C 12.1 °C 1019.1 hPa West 30 km/h 19 km/h 76% 0.00 mm 0.00 W/m2
14:09 16.3 °C 11.6 °C 1019.1 hPa WNW 32 km/h 20 km/h 74% 0.00 mm 0.00 W/m2
14:14 16.3 °C 11.8 °C 1019.0 hPa West 28 km/h 17 km/h 75% 0.00 mm 0.00 W/m2
14:19 16.3 °C 11.7 °C 1018.9 hPa West 28 km/h 16 km/h 74% 0.00 mm 0.00 W/m2
14:24 16.4 °C 11.7 °C 1018.9 hPa West 30 km/h 19 km/h 74% 0.00 mm 0.00 W/m2
14:29 16.4 °C 11.8 °C 1018.9 hPa WNW 21 km/h 14 km/h 74% 0.00 mm 0.00 W/m2
14:34 16.5 °C 11.8 °C 1018.8 hPa WNW 28 km/h 17 km/h 74% 0.00 mm 0.00 W/m2
14:39 16.6 °C 11.8 °C 1018.8 hPa West 28 km/h 18 km/h 74% 0.00 mm 0.00 W/m2
14:44 16.6 °C 11.7 °C 1018.6 hPa West 26 km/h 20 km/h 73% 0.00 mm 0.00 W/m2
14:49 16.4 °C 11.6 °C 1018.6 hPa WNW 19 km/h 15 km/h 73% 0.00 mm 0.00 W/m2
14:54 16.6 °C 11.9 °C 1018.5 hPa West 32 km/h 20 km/h 74% 0.00 mm 0.00 W/m2
14:59 16.5 °C 11.7 °C 1018.5 hPa West 32 km/h 21 km/h 73% 0.00 mm 0.00 W/m2
15:04 16.4 °C 11.6 °C 1018.4 hPa West 30 km/h 20 km/h 73% 0.00 mm 0.00 W/m2
15:09 16.4 °C 11.6 °C 1018.4 hPa West 26 km/h 14 km/h 73% 0.00 mm 0.00 W/m2
15:14 16.4 °C 11.6 °C 1018.4 hPa West 24 km/h 16 km/h 73% 0.00 mm 0.00 W/m2
15:19 16.5 °C 11.8 °C 1018.4 hPa West 23 km/h 15 km/h 74% 0.00 mm 0.00 W/m2
15:24 16.5 °C 11.8 °C 1018.3 hPa WNW 30 km/h 16 km/h 74% 0.00 mm 0.00 W/m2
15:29 16.4 °C 11.8 °C 1018.3 hPa West 26 km/h 15 km/h 74% 0.00 mm 0.00 W/m2
15:34 16.4 °C 11.8 °C 1018.3 hPa West 26 km/h 16 km/h 74% 0.00 mm 0.00 W/m2
15:39 16.4 °C 11.7 °C 1018.1 hPa WNW 24 km/h 18 km/h 74% 0.00 mm 0.00 W/m2
15:44 16.3 °C 11.6 °C 1017.9 hPa WNW 24 km/h 16 km/h 74% 0.00 mm 0.00 W/m2
15:49 16.3 °C 11.6 °C 1018.0 hPa WNW 24 km/h 19 km/h 74% 0.00 mm 0.00 W/m2
15:54 16.3 °C 11.4 °C 1018.0 hPa WNW 24 km/h 18 km/h 73% 0.00 mm 0.00 W/m2
15:59 16.2 °C 11.4 °C 1018.0 hPa WNW 26 km/h 16 km/h 73% 0.00 mm 0.00 W/m2
16:04 16.2 °C 11.4 °C 1017.9 hPa West 24 km/h 11 km/h 73% 0.00 mm 0.00 W/m2
16:09 16.2 °C 11.4 °C 1017.9 hPa West 30 km/h 18 km/h 73% 0.00 mm 0.00 W/m2
16:14 16.2 °C 11.4 °C 1017.8 hPa West 24 km/h 16 km/h 74% 0.00 mm 0.00 W/m2
16:19 16.0 °C 11.4 °C 1017.8 hPa West 21 km/h 16 km/h 74% 0.00 mm 0.00 W/m2
16:24 16.0 °C 11.4 °C 1017.8 hPa WNW 21 km/h 15 km/h 74% 0.00 mm 0.00 W/m2
16:29 16.0 °C 11.5 °C 1017.6 hPa West 26 km/h 16 km/h 75% 0.00 mm 0.00 W/m2
16:34 15.9 °C 11.5 °C 1017.5 hPa West 24 km/h 16 km/h 75% 0.00 mm 0.00 W/m2
16:39 15.9 °C 11.4 °C 1017.4 hPa West 23 km/h 14 km/h 75% 0.00 mm 0.00 W/m2
16:44 15.8 °C 11.4 °C 1017.3 hPa West 19 km/h 13 km/h 75% 0.00 mm 0.00 W/m2
16:49 15.8 °C 11.2 °C 1017.3 hPa West 26 km/h 13 km/h 74% 0.00 mm 0.00 W/m2
16:54 15.8 °C 11.2 °C 1017.2 hPa WNW 26 km/h 17 km/h 74% 0.00 mm 0.00 W/m2
16:59 15.8 °C 11.2 °C 1017.2 hPa WNW 26 km/h 15 km/h 74% 0.00 mm 0.00 W/m2
17:04 15.8 °C 11.2 °C 1017.1 hPa WNW 21 km/h 14 km/h 74% 0.00 mm 0.00 W/m2
17:09 15.8 °C 11.2 °C 1017.0 hPa West 19 km/h 14 km/h 74% 0.00 mm 0.00 W/m2
17:14 15.9 °C 11.3 °C 1017.0 hPa WNW 23 km/h 13 km/h 74% 0.00 mm 0.00 W/m2
17:19 15.9 °C 11.3 °C 1017.0 hPa West 26 km/h 16 km/h 74% 0.00 mm 0.00 W/m2
17:24 15.9 °C 11.3 °C 1017.1 hPa WNW 23 km/h 15 km/h 74% 0.00 mm 0.00 W/m2
17:29 15.9 °C 11.3 °C 1017.1 hPa West 19 km/h 11 km/h 74% 0.00 mm 0.00 W/m2
17:34 15.9 °C 11.3 °C 1017.1 hPa NW 19 km/h 12 km/h 74% 0.00 mm 0.00 W/m2
17:39 15.8 °C 11.1 °C 1017.0 hPa West 26 km/h 15 km/h 74% 0.00 mm 0.00 W/m2
17:44 15.7 °C 11.1 °C 1017.0 hPa WNW 17 km/h 9 km/h 74% 0.00 mm 0.00 W/m2
17:49 15.7 °C 11.1 °C 1016.9 hPa WNW 19 km/h 10 km/h 74% 0.00 mm 0.00 W/m2
17:54 15.6 °C 10.9 °C 1016.9 hPa WNW 19 km/h 11 km/h 74% 0.00 mm 0.00 W/m2
17:59 15.4 °C 10.9 °C 1016.8 hPa NW 21 km/h 12 km/h 75% 0.00 mm 0.00 W/m2
18:04 15.3 °C 10.9 °C 1016.8 hPa NW 17 km/h 6 km/h 75% 0.00 mm 0.00 W/m2
18:09 15.2 °C 11.0 °C 1016.7 hPa WNW 19 km/h 9 km/h 76% 0.00 mm 0.00 W/m2
18:14 15.2 °C 11.0 °C 1016.6 hPa West 23 km/h 14 km/h 76% 0.00 mm 0.00 W/m2
18:19 15.2 °C 10.9 °C 1016.5 hPa West 19 km/h 9 km/h 76% 0.00 mm 0.00 W/m2
18:24 15.2 °C 10.9 °C 1016.4 hPa WNW 19 km/h 8 km/h 76% 0.00 mm 0.00 W/m2
18:29 15.1 °C 11.1 °C 1016.3 hPa WNW 19 km/h 9 km/h 77% 0.00 mm 0.00 W/m2
18:34 15.1 °C 11.1 °C 1016.2 hPa West 19 km/h 12 km/h 77% 0.00 mm 0.00 W/m2
18:39 15.0 °C 11.0 °C 1016.1 hPa WNW 17 km/h 9 km/h 77% 0.00 mm 0.00 W/m2
18:44 14.9 °C 10.9 °C 1016.0 hPa WNW 11 km/h 7 km/h 77% 0.00 mm 0.00 W/m2
18:49 14.9 °C 11.1 °C 1016.0 hPa WNW 16 km/h 12 km/h 78% 0.00 mm 0.00 W/m2
18:54 14.8 °C 11.1 °C 1015.9 hPa WNW 17 km/h 9 km/h 78% 0.00 mm 0.00 W/m2
18:59 14.8 °C 11.1 °C 1015.9 hPa WNW 19 km/h 11 km/h 78% 0.00 mm 0.00 W/m2
19:04 14.8 °C 11.0 °C 1015.8 hPa West 15 km/h 9 km/h 78% 0.00 mm 0.00 W/m2
19:09 14.8 °C 11.0 °C 1015.8 hPa West 13 km/h 6 km/h 78% 0.00 mm 0.00 W/m2
Vejrstation Sortsø Strand
Compliments of Weather Underground - 2 mb

© 2006-2024 strandvejr.dk